createdAt,value
2019-02-18T00:01:26.982Z,23.02
2019-02-18T00:05:30.304Z,23.07
2019-02-18T00:09:33.778Z,23.38
2019-02-18T00:13:37.294Z,20.90
2019-02-18T00:17:40.691Z,22.87
2019-02-18T00:21:44.085Z,21.20
2019-02-18T00:25:47.507Z,22.27
2019-02-18T00:29:50.899Z,22.32
2019-02-18T00:33:54.274Z,19.92
2019-02-18T00:37:57.744Z,19.52
2019-02-18T00:42:01.172Z,21.82
2019-02-18T00:46:04.557Z,18.90
2019-02-18T00:50:09.118Z,17.92
2019-02-18T00:54:12.578Z,18.02
2019-02-18T00:58:15.975Z,19.07
2019-02-18T01:02:19.399Z,17.25
2019-02-18T01:06:22.793Z,17.65
2019-02-18T01:10:26.190Z,18.45
2019-02-18T01:14:29.584Z,19.27
2019-02-18T01:18:32.975Z,17.35
2019-02-18T01:22:36.358Z,18.98
2019-02-18T01:26:39.813Z,17.45
2019-02-18T01:30:43.149Z,17.43
2019-02-18T01:34:46.568Z,17.20
2019-02-18T01:38:49.966Z,18.12
2019-02-18T01:42:53.353Z,17.05
2019-02-18T01:46:56.706Z,15.00
2019-02-18T01:51:00.100Z,17.10
2019-02-18T01:55:03.467Z,15.43
2019-02-18T01:59:06.874Z,18.55
2019-02-18T02:03:10.256Z,17.73
2019-02-18T02:07:13.647Z,17.23
2019-02-18T02:11:16.998Z,15.93
2019-02-18T02:15:23.555Z,14.20
2019-02-18T02:19:26.934Z,14.60
2019-02-18T02:23:30.349Z,16.30
2019-02-18T02:27:33.735Z,13.83
2019-02-18T02:31:37.138Z,14.63
2019-02-18T02:35:40.507Z,13.80
2019-02-18T02:39:43.879Z,14.20
2019-02-18T02:43:47.287Z,14.00
2019-02-18T02:47:50.718Z,12.35
2019-02-18T02:51:54.106Z,14.50
2019-02-18T02:55:57.479Z,13.20
2019-02-18T03:00:00.855Z,14.38
2019-02-18T03:04:04.330Z,15.03
2019-02-18T03:08:19.329Z,14.75
2019-02-18T03:12:12.855Z,15.53
2019-02-18T03:16:16.231Z,15.28
2019-02-18T03:20:19.631Z,13.32
2019-02-18T03:24:23.046Z,13.95
2019-02-18T03:28:41.474Z,14.93
2019-02-18T03:32:44.868Z,14.63
2019-02-18T03:36:48.265Z,13.77
2019-02-18T03:41:02.494Z,12.40
2019-02-18T03:44:56.667Z,12.47
2019-02-18T03:49:00.081Z,14.10
2019-02-18T03:53:03.483Z,12.73
2019-02-18T03:57:06.895Z,12.70
2019-02-18T04:01:10.276Z,13.13
2019-02-18T04:05:13.650Z,13.10
2019-02-18T04:09:17.045Z,14.10
2019-02-18T04:13:20.456Z,14.45
2019-02-18T04:17:23.869Z,13.75
2019-02-18T04:21:27.292Z,13.27
2019-02-18T04:25:30.664Z,13.80
2019-02-18T04:29:34.034Z,12.98
2019-02-18T04:33:37.439Z,12.80
2019-02-18T04:37:40.834Z,13.03
2019-02-18T04:41:44.212Z,12.33
2019-02-18T04:45:47.615Z,12.20
2019-02-18T04:49:51.020Z,12.30
2019-02-18T04:53:54.422Z,12.82
2019-02-18T04:57:57.826Z,13.38
2019-02-18T05:02:01.228Z,11.90
2019-02-18T05:06:04.662Z,12.85
2019-02-18T05:10:10.084Z,11.88
2019-02-18T05:14:13.573Z,13.60
2019-02-18T05:18:17.037Z,13.08
2019-02-18T05:22:20.360Z,12.20
2019-02-18T05:26:23.799Z,12.90
2019-02-18T05:30:29.414Z,13.05
2019-02-18T05:34:32.152Z,13.07
2019-02-18T05:38:35.547Z,13.45
2019-02-18T05:42:38.938Z,12.73
2019-02-18T05:46:42.374Z,13.40
2019-02-18T05:50:45.696Z,12.73
2019-02-18T05:54:49.222Z,13.80
2019-02-18T05:58:52.627Z,12.15
2019-02-18T06:02:56.125Z,12.00
2019-02-18T06:06:59.418Z,11.70
2019-02-18T06:11:02.825Z,11.48
2019-02-18T06:15:08.856Z,11.55
2019-02-18T06:19:12.255Z,12.82
2019-02-18T06:23:15.654Z,12.93
2019-02-18T06:27:19.026Z,12.43
2019-02-18T06:31:22.403Z,12.45
2019-02-18T06:35:25.800Z,11.68
2019-02-18T06:39:40.265Z,11.33
2019-02-18T06:47:37.089Z,9.65
2019-02-18T06:51:40.406Z,11.90
2019-02-18T06:55:43.796Z,10.95
2019-02-18T06:59:48.865Z,12.10
2019-02-18T07:04:09.991Z,11.25
2019-02-18T07:08:17.764Z,12.03
2019-02-18T07:12:22.767Z,12.60
2019-02-18T07:16:26.156Z,13.80
2019-02-18T07:20:29.554Z,12.20
2019-02-18T07:24:32.948Z,12.20
2019-02-18T07:28:36.394Z,11.50
2019-02-18T07:32:39.778Z,12.40
2019-02-18T07:36:43.183Z,12.58
2019-02-18T07:40:46.574Z,12.25
2019-02-18T07:44:50.044Z,12.23
2019-02-18T07:48:53.423Z,11.47
2019-02-18T07:52:56.796Z,11.13
2019-02-18T07:57:00.199Z,11.65
2019-02-18T08:01:03.591Z,10.43
2019-02-18T08:05:06.986Z,10.50
2019-02-18T08:09:10.376Z,10.58
2019-02-18T08:13:13.744Z,10.48
2019-02-18T08:17:17.143Z,11.10
2019-02-18T08:21:20.534Z,11.18
2019-02-18T08:25:23.945Z,11.88
2019-02-18T08:29:27.616Z,11.88
2019-02-18T08:33:31.044Z,12.25
2019-02-18T08:37:34.723Z,11.45
2019-02-18T08:41:38.099Z,11.28
2019-02-18T08:45:44.300Z,11.30
2019-02-18T08:49:47.680Z,11.30
2019-02-18T08:53:51.063Z,10.88
2019-02-18T08:57:54.424Z,10.32
2019-02-18T09:01:57.821Z,10.93
2019-02-18T09:06:01.218Z,10.72
2019-02-18T09:10:06.917Z,10.58
2019-02-18T09:14:10.311Z,10.50
2019-02-18T09:18:13.695Z,10.50
2019-02-18T09:22:33.611Z,9.73
2019-02-18T09:26:37.039Z,9.90
2019-02-18T09:30:42.078Z,10.08
2019-02-18T09:34:45.455Z,10.13
2019-02-18T09:38:48.835Z,10.33
2019-02-18T09:42:52.259Z,9.08
2019-02-18T09:46:55.684Z,9.73
2019-02-18T09:51:00.149Z,9.70
2019-02-18T09:55:04.063Z,10.55
2019-02-18T09:59:07.439Z,11.10
2019-02-18T10:03:10.770Z,9.83
2019-02-18T10:07:14.164Z,9.73
2019-02-18T10:11:17.559Z,9.15
2019-02-18T10:15:20.962Z,9.08
2019-02-18T10:19:24.314Z,8.88
2019-02-18T10:23:27.717Z,9.13
2019-02-18T10:27:31.111Z,9.50
2019-02-18T10:31:34.533Z,9.38
2019-02-18T10:35:37.906Z,8.93
2019-02-18T10:39:41.287Z,10.00
2019-02-18T10:43:44.713Z,9.85
2019-02-18T10:47:48.139Z,10.23
2019-02-18T10:51:51.551Z,9.85
2019-02-18T10:55:54.954Z,9.68
2019-02-18T10:59:59.298Z,9.53
2019-02-18T11:04:02.772Z,10.20
2019-02-18T11:08:06.143Z,10.18
2019-02-18T11:12:09.544Z,11.70
2019-02-18T11:16:12.938Z,10.53
2019-02-18T11:20:16.322Z,11.53
2019-02-18T11:24:20.732Z,11.20
2019-02-18T11:28:24.228Z,11.10
2019-02-18T11:32:27.631Z,11.20
2019-02-18T11:36:31.002Z,11.95
2019-02-18T11:40:34.385Z,11.40
2019-02-18T11:44:37.775Z,11.63
2019-02-18T11:48:41.633Z,11.38
2019-02-18T11:52:45.040Z,11.65
2019-02-18T11:56:48.403Z,11.83
2019-02-18T12:00:51.787Z,10.97
2019-02-18T12:04:55.162Z,11.63
2019-02-18T12:08:58.586Z,11.90
2019-02-18T12:13:02.088Z,12.15
2019-02-18T12:17:05.467Z,12.13
2019-02-18T12:21:09.243Z,10.73
2019-02-18T12:25:13.170Z,11.88
2019-02-18T12:29:26.205Z,11.48
2019-02-18T12:33:21.935Z,10.93
2019-02-18T12:37:25.302Z,12.47
2019-02-18T12:41:28.684Z,17.07
2019-02-18T12:45:32.907Z,11.28
2019-02-18T12:49:36.327Z,20.97
2019-02-18T12:53:39.859Z,11.97
2019-02-18T12:57:43.253Z,14.83
2019-02-18T13:01:46.618Z,41.88
2019-02-18T13:05:50.062Z,35.58
2019-02-18T13:09:53.529Z,12.00
2019-02-18T13:13:56.930Z,19.15
2019-02-18T13:22:03.656Z,11.95
2019-02-18T13:26:07.031Z,11.55
2019-02-18T13:30:18.794Z,11.60
2019-02-18T13:34:22.195Z,12.03
2019-02-18T13:38:25.666Z,11.90
2019-02-18T13:42:29.072Z,11.88
2019-02-18T13:46:33.902Z,11.40
2019-02-18T13:50:37.283Z,12.55
2019-02-18T13:54:41.006Z,11.45
2019-02-18T13:58:44.427Z,12.13
2019-02-18T14:02:48.342Z,12.98
2019-02-18T14:06:51.725Z,11.60
2019-02-18T14:10:55.147Z,11.30
2019-02-18T14:14:58.559Z,11.38
2019-02-18T14:19:01.962Z,12.68
2019-02-18T14:23:05.330Z,12.75
2019-02-18T14:27:08.705Z,13.30
2019-02-18T14:31:12.097Z,13.80
2019-02-18T14:35:17.525Z,12.82
2019-02-18T14:39:22.554Z,13.72
2019-02-18T14:43:25.926Z,13.15
2019-02-18T14:47:29.514Z,13.90
2019-02-18T14:51:32.902Z,13.43
2019-02-18T14:55:36.317Z,13.28
2019-02-18T14:59:39.706Z,13.03
2019-02-18T15:03:43.080Z,14.98
2019-02-18T15:07:46.473Z,14.40
2019-02-18T15:11:49.884Z,12.40
2019-02-18T15:15:53.286Z,13.40
2019-02-18T15:19:56.690Z,12.37
2019-02-18T15:24:00.072Z,13.53
2019-02-18T15:28:03.502Z,13.90
2019-02-18T15:32:06.886Z,13.70
2019-02-18T15:36:10.310Z,13.23
2019-02-18T15:40:15.577Z,34.78
2019-02-18T15:44:18.950Z,20.10
2019-02-18T15:48:22.530Z,13.75
2019-02-18T15:52:25.916Z,26.60
2019-02-18T15:56:29.327Z,15.13
2019-02-18T16:00:32.727Z,27.50
2019-02-18T16:04:36.113Z,19.15
2019-02-18T16:08:39.491Z,16.82
2019-02-18T16:12:50.465Z,22.85
2019-02-18T16:16:47.915Z,12.77
2019-02-18T16:20:51.328Z,12.73
2019-02-18T16:24:54.699Z,11.45
2019-02-18T16:28:58.081Z,12.93
2019-02-18T16:33:01.542Z,11.43
2019-02-18T16:37:05.330Z,11.05
2019-02-18T16:41:08.713Z,11.22
2019-02-18T16:45:13.914Z,11.22
2019-02-18T16:49:17.294Z,13.13
2019-02-18T16:53:20.678Z,11.70
2019-02-18T16:57:24.126Z,11.05
2019-02-18T17:01:27.536Z,8.98
2019-02-18T17:05:30.918Z,8.85
2019-02-18T17:09:34.319Z,9.60
2019-02-18T17:13:37.695Z,9.60
2019-02-18T17:17:41.082Z,10.05
2019-02-18T17:21:45.607Z,9.28
2019-02-18T17:25:49.060Z,9.88
2019-02-18T17:29:52.443Z,9.38
2019-02-18T17:33:56.138Z,9.73
2019-02-18T17:37:59.533Z,10.13
2019-02-18T17:42:03.123Z,9.35
2019-02-18T17:46:06.505Z,9.73
2019-02-18T17:50:16.847Z,9.48
2019-02-18T17:54:20.199Z,7.55
2019-02-18T17:58:23.625Z,8.58
2019-02-18T18:02:27.011Z,11.22
2019-02-18T18:06:30.392Z,12.17
2019-02-18T18:10:33.819Z,12.45
2019-02-18T18:14:37.206Z,13.58
2019-02-18T18:18:40.598Z,16.23
2019-02-18T18:22:43.994Z,11.80
2019-02-18T18:26:47.670Z,10.85
2019-02-18T18:30:51.059Z,11.30
2019-02-18T18:34:54.648Z,10.00
2019-02-18T18:38:58.049Z,9.95
2019-02-18T18:43:01.550Z,10.58
2019-02-18T18:47:04.967Z,10.38
2019-02-18T18:56:06.716Z,8.93
2019-02-18T19:00:19.981Z,18.48
2019-02-18T19:04:23.350Z,19.90
2019-02-18T19:08:26.754Z,21.60
2019-02-18T19:12:30.162Z,19.75
2019-02-18T19:16:33.538Z,19.02
2019-02-18T19:20:37.386Z,17.42
2019-02-18T19:24:40.802Z,14.23
2019-02-18T19:28:44.574Z,12.68
2019-02-18T19:32:48.072Z,13.25
2019-02-18T19:36:51.719Z,13.60
2019-02-18T19:40:55.554Z,13.35
2019-02-18T19:44:59.172Z,11.10
2019-02-18T19:49:02.855Z,11.60
2019-02-18T19:53:06.655Z,9.60
2019-02-18T19:57:11.802Z,10.20
2019-02-18T20:01:15.207Z,13.00
2019-02-18T20:05:18.922Z,14.07
2019-02-18T20:09:22.557Z,23.50
2019-02-18T20:13:26.065Z,12.85
2019-02-18T20:17:29.455Z,11.57
2019-02-18T20:21:32.865Z,11.88
2019-02-18T20:25:36.663Z,10.95
2019-02-18T20:29:40.426Z,12.18
2019-02-18T20:33:43.904Z,11.05
2019-02-18T20:37:47.640Z,11.33
2019-02-18T20:41:51.596Z,10.80
2019-02-18T20:45:55.240Z,11.78
2019-02-18T20:49:59.028Z,11.60
2019-02-18T20:54:02.408Z,11.75
2019-02-18T20:58:05.920Z,10.80
2019-02-18T21:02:09.295Z,10.72
2019-02-18T21:06:12.684Z,10.25
2019-02-18T21:10:20.270Z,11.08
2019-02-18T21:14:23.662Z,11.17
2019-02-18T21:18:27.043Z,10.47
2019-02-18T21:22:30.415Z,10.63
2019-02-18T21:26:33.819Z,11.70
2019-02-18T21:30:37.210Z,11.63
2019-02-18T21:34:40.797Z,10.93
2019-02-18T21:38:44.195Z,11.03
2019-02-18T21:42:47.887Z,11.35
2019-02-18T21:46:51.273Z,11.12
2019-02-18T21:50:54.679Z,10.13
2019-02-18T21:54:58.126Z,10.40
2019-02-18T21:59:01.798Z,10.90
2019-02-18T22:03:05.219Z,10.63
2019-02-18T22:07:08.606Z,10.40
2019-02-18T22:11:12.006Z,10.78
2019-02-18T22:15:15.524Z,10.90
2019-02-18T22:19:18.904Z,11.33
2019-02-18T22:23:22.279Z,11.30
2019-02-18T22:27:25.674Z,10.08
2019-02-18T22:31:29.095Z,9.43
2019-02-18T22:35:32.462Z,9.40
2019-02-18T22:39:35.838Z,9.03
2019-02-18T22:43:39.239Z,9.83
2019-02-18T22:47:42.610Z,10.43
2019-02-18T22:51:46.011Z,11.35
2019-02-18T22:55:49.378Z,10.35
2019-02-18T22:59:53.058Z,10.98
2019-02-18T23:03:56.451Z,11.08
2019-02-18T23:08:00.239Z,10.28
2019-02-18T23:12:03.636Z,11.18
2019-02-18T23:16:07.013Z,10.23
2019-02-18T23:20:10.407Z,9.40
2019-02-18T23:24:13.787Z,9.50
2019-02-18T23:28:17.171Z,8.58
2019-02-18T23:32:20.575Z,10.20
2019-02-18T23:36:23.971Z,7.58
2019-02-18T23:40:27.334Z,8.45
2019-02-18T23:44:30.718Z,9.58
2019-02-18T23:48:34.111Z,11.05
2019-02-18T23:52:37.512Z,10.13
2019-02-18T23:56:40.902Z,10.78
